Time;durP1;ratioP1;P1;durP2;ratioP2;P2;SDS_P1;SDS_P2;PMS_P1;PMS_P2;Temp;Humidity;BMP_temperature;BMP_pressure;BME280_temperature;BME280_humidity;BME280_pressure;Samples;Min_cycle;Max_cycle;Signal;HPM_P1;HPM_P2
2023/09/26 00:00:13;;;;;;;6.47;2.35;;;19.80;66.90;;;;;;5073967;28;20198;-58
2023/09/26 00:02:42;;;;;;;6.45;2.13;;;19.80;66.90;;;;;;5073306;28;20563;-55
2023/09/26 00:05:10;;;;;;;4.97;2.22;;;19.80;66.90;;;;;;5073925;28;20194;-57
2023/09/26 00:13:49;;;;;;;6.15;2.60;;;19.80;66.90;;;;;;4968923;28;20221;-62
2023/09/26 00:16:17;;;;;;;5.43;1.98;;;19.70;66.90;;;;;;4991452;28;20346;-56
2023/09/26 00:18:44;;;;;;;5.78;2.10;;;19.80;67.00;;;;;;4991834;28;20246;-59
2023/09/26 00:21:12;;;;;;;7.90;2.20;;;19.70;66.90;;;;;;4991704;28;20256;-58
2023/09/26 00:23:39;;;;;;;4.32;1.95;;;19.80;67.00;;;;;;4991431;28;20221;-61
2023/09/26 00:26:08;;;;;;;5.68;2.08;;;19.80;67.00;;;;;;4991649;28;20703;-57
2023/09/26 00:28:36;;;;;;;5.93;2.22;;;19.80;67.00;;;;;;4991781;28;20312;-56
2023/09/26 00:31:04;;;;;;;4.80;2.03;;;19.80;67.10;;;;;;4991255;28;20234;-59
2023/09/26 00:33:32;;;;;;;6.03;1.92;;;19.80;67.10;;;;;;4991480;28;20222;-60
2023/09/26 00:36:07;;;;;;;6.82;2.55;;;19.70;67.00;;;;;;4991551;28;20194;-60
2023/09/26 00:38:35;;;;;;;5.43;2.20;;;19.70;67.10;;;;;;4991289;28;20263;-58
2023/09/26 00:41:03;;;;;;;5.40;2.00;;;19.80;67.10;;;;;;4991448;28;20273;-56
2023/09/26 00:43:32;;;;;;;4.80;1.98;;;19.80;67.10;;;;;;4991313;28;20222;-60
2023/09/26 00:46:01;;;;;;;7.10;2.08;;;19.80;67.10;;;;;;4990865;28;20234;-62
2023/09/26 00:48:29;;;;;;;6.40;2.35;;;19.70;67.10;;;;;;4991199;28;20213;-59
2023/09/26 00:50:57;;;;;;;6.70;2.35;;;19.70;67.10;;;;;;5042967;28;20234;-60
2023/09/26 00:53:25;;;;;;;5.05;2.08;;;19.80;67.20;;;;;;5072709;28;20215;-60
2023/09/26 00:55:55;;;;;;;5.22;2.20;;;19.80;67.20;;;;;;5072908;28;20188;-62
2023/09/26 00:58:23;;;;;;;4.88;1.90;;;19.80;67.20;;;;;;5072902;28;20302;-57
2023/09/26 01:00:53;;;;;;;4.82;2.03;;;19.80;67.20;;;;;;5072387;28;20748;-65
2023/09/26 01:03:22;;;;;;;7.18;2.70;;;19.80;67.20;;;;;;5072759;28;20214;-63
2023/09/26 01:05:49;;;;;;;5.32;1.85;;;19.80;67.20;;;;;;5072856;28;20191;-63
2023/09/26 01:08:17;;;;;;;4.93;1.95;;;19.80;67.20;;;;;;5072148;28;20233;-59
2023/09/26 01:10:45;;;;;;;3.50;1.83;;;19.80;67.20;;;;;;5072679;28;20221;-65
2023/09/26 01:13:12;;;;;;;7.72;2.50;;;19.80;67.20;;;;;;5072581;28;20225;-57
2023/09/26 01:15:42;;;;;;;8.43;2.08;;;19.80;67.20;;;;;;5072006;28;20672;-62
2023/09/26 01:18:14;;;;;;;4.05;1.83;;;19.80;67.20;;;;;;5071952;28;20594;-61
2023/09/26 01:20:44;;;;;;;7.20;2.20;;;19.80;67.20;;;;;;5072434;28;20198;-54
2023/09/26 01:23:13;;;;;;;5.75;2.30;;;19.80;67.20;;;;;;5071938;28;20768;-64
2023/09/26 01:26:07;;;;;;;4.75;2.10;;;19.70;67.20;;;;;;5072459;28;20199;-63
2023/09/26 01:32:07;;;;;;;5.57;2.30;;;19.80;67.30;;;;;;5071919;28;20221;-63
2023/09/26 01:34:35;;;;;;;4.53;2.10;;;19.80;67.30;;;;;;5071940;28;20242;-61
2023/09/26 01:37:02;;;;;;;6.47;2.42;;;19.80;67.30;;;;;;5072380;28;20182;-63
2023/09/26 01:39:31;;;;;;;5.70;2.33;;;19.80;67.40;;;;;;5072045;28;20222;-61
2023/09/26 01:42:00;;;;;;;6.25;2.55;;;19.70;67.30;;;;;;5072019;28;20197;-64
2023/09/26 01:44:28;;;;;;;6.65;2.47;;;19.80;67.40;;;;;;5072226;28;20218;-61
2023/09/26 01:46:55;;;;;;;5.40;2.40;;;19.70;67.30;;;;;;5071860;28;20817;-61
2023/09/26 01:49:22;;;;;;;5.72;1.98;;;19.70;67.40;;;;;;5072252;28;20221;-62
2023/09/26 01:51:50;;;;;;;5.18;2.17;;;19.80;68.20;;;;;;5072099;28;20218;-64
2023/09/26 01:54:17;;;;;;;5.88;2.33;;;19.70;67.40;;;;;;5067896;28;20218;-60
2023/09/26 01:56:45;;;;;;;6.07;2.30;;;19.80;67.50;;;;;;5052244;28;20196;-59
2023/09/26 01:59:14;;;;;;;4.22;2.05;;;19.80;67.40;;;;;;5052000;28;20226;-61
2023/09/26 02:01:44;;;;;;;6.65;2.30;;;19.80;68.30;;;;;;5051886;28;20195;-60
2023/09/26 02:04:11;;;;;;;4.55;2.35;;;19.80;67.50;;;;;;5052186;28;20219;-64
2023/09/26 02:06:39;;;;;;;5.50;2.20;;;19.80;67.50;;;;;;5051658;28;20754;-62
2023/09/26 02:09:06;;;;;;;4.90;2.30;;;19.80;67.50;;;;;;5051658;28;20251;-61
2023/09/26 02:11:34;;;;;;;5.47;2.08;;;19.80;67.50;;;;;;5051603;28;20314;-63
2023/09/26 02:14:02;;;;;;;5.22;2.10;;;19.70;67.40;;;;;;5051885;28;20254;-63
2023/09/26 02:16:30;;;;;;;5.30;2.38;;;19.70;67.50;;;;;;5051812;28;20235;-62
2023/09/26 02:18:58;;;;;;;6.03;2.50;;;19.80;67.50;;;;;;5051679;28;20753;-62
2023/09/26 02:21:26;;;;;;;5.72;2.00;;;19.70;67.40;;;;;;5051932;28;20314;-61
2023/09/26 02:23:53;;;;;;;5.90;2.50;;;19.80;68.40;;;;;;5051547;28;20226;-63
2023/09/26 02:26:20;;;;;;;5.43;2.05;;;19.70;67.50;;;;;;5051817;28;20191;-64
2023/09/26 02:28:48;;;;;;;4.57;2.25;;;19.80;67.60;;;;;;5053271;28;20258;-60
2023/09/26 02:31:16;;;;;;;5.40;2.50;;;19.70;67.50;;;;;;5055093;28;20215;-64
2023/09/26 02:33:45;;;;;;;6.05;2.28;;;19.80;67.60;;;;;;5055604;28;20216;-58
2023/09/26 02:36:13;;;;;;;4.68;2.15;;;19.70;67.50;;;;;;5055352;28;20304;-58
2023/09/26 02:38:40;;;;;;;4.85;2.30;;;19.80;67.60;;;;;;5055449;28;20219;-64
2023/09/26 02:41:07;;;;;;;5.25;2.28;;;19.70;67.50;;;;;;5055575;28;20188;-57
2023/09/26 02:43:35;;;;;;;5.93;2.70;;;19.70;67.60;;;;;;5055359;28;20219;-59
2023/09/26 02:46:02;;;;;;;4.22;1.95;;;19.80;67.70;;;;;;5054889;28;20220;-61
2023/09/26 02:48:30;;;;;;;4.78;2.10;;;19.80;67.70;;;;;;5055670;28;20265;-64
2023/09/26 02:51:04;;;;;;;5.50;2.05;;;19.70;67.60;;;;;;5055023;28;20247;-61
2023/09/26 02:53:32;;;;;;;5.15;2.33;;;19.70;67.60;;;;;;5055138;28;20293;-62
2023/09/26 02:55:59;;;;;;;5.00;2.40;;;19.80;67.70;;;;;;5055130;28;20184;-64
2023/09/26 02:58:26;;;;;;;5.22;2.00;;;19.80;67.70;;;;;;5055355;28;20237;-63
2023/09/26 03:00:54;;;;;;;5.90;2.08;;;19.70;67.60;;;;;;5054644;28;20286;-63
2023/09/26 03:03:21;;;;;;;5.18;2.15;;;19.70;67.60;;;;;;5055109;28;20219;-63
2023/09/26 03:05:52;;;;;;;5.07;2.58;;;19.80;67.80;;;;;;5054859;28;20725;-61
2023/09/26 03:08:20;;;;;;;4.35;2.35;;;19.80;67.80;;;;;;5054759;28;20219;-62
2023/09/26 03:10:48;;;;;;;6.47;2.17;;;19.80;67.80;;;;;;5054610;28;20303;-64
2023/09/26 03:13:15;;;;;;;4.85;2.47;;;19.70;67.70;;;;;;5055019;28;20219;-60
2023/09/26 03:15:42;;;;;;;5.72;2.53;;;19.70;67.70;;;;;;5054315;28;20200;-63
2023/09/26 03:18:10;;;;;;;4.90;2.03;;;19.70;67.60;;;;;;5054883;28;20215;-62
2023/09/26 03:20:39;;;;;;;4.78;2.15;;;19.70;67.70;;;;;;5054761;28;20184;-62
2023/09/26 03:23:07;;;;;;;6.78;2.10;;;19.80;67.70;;;;;;5054562;28;20211;-60
2023/09/26 03:25:37;;;;;;;5.30;2.10;;;19.70;67.70;;;;;;5054415;28;20746;-59
2023/09/26 03:28:07;;;;;;;6.25;2.30;;;19.70;67.70;;;;;;5054249;28;20306;-58
2023/09/26 03:30:35;;;;;;;5.85;2.25;;;19.80;68.60;;;;;;5054340;28;20188;-59
2023/09/26 03:33:02;;;;;;;4.20;2.25;;;19.70;67.70;;;;;;5054071;28;20226;-61
2023/09/26 03:35:29;;;;;;;4.90;1.95;;;19.70;67.80;;;;;;5054228;28;20196;-58
2023/09/26 03:38:06;;;;;;;5.00;1.90;;;19.80;67.90;;;;;;5053884;28;20298;-59
2023/09/26 03:40:33;;;;;;;4.00;2.08;;;19.70;67.80;;;;;;5054067;28;20199;-55
2023/09/26 03:43:02;;;;;;;4.97;2.45;;;19.70;67.80;;;;;;5054339;28;20218;-57
2023/09/26 03:45:29;;;;;;;4.82;2.55;;;19.70;67.80;;;;;;5053911;28;20220;-61
2023/09/26 03:47:56;;;;;;;4.07;2.20;;;19.80;67.90;;;;;;5054206;28;20227;-62
2023/09/26 03:50:24;;;;;;;3.55;2.05;;;19.80;67.90;;;;;;5053868;28;20202;-59
2023/09/26 03:52:51;;;;;;;6.45;2.33;;;19.70;67.80;;;;;;5053851;28;20242;-63
2023/09/26 03:55:19;;;;;;;4.28;2.30;;;19.70;67.80;;;;;;5054166;28;20673;-61
2023/09/26 03:57:59;;;;;;;5.07;2.03;;;19.70;67.90;;;;;;5054103;28;20192;-60
2023/09/26 04:00:34;;;;;;;5.28;2.13;;;19.70;67.90;;;;;;5053814;28;20280;-62
2023/09/26 04:03:02;;;;;;;5.25;2.10;;;19.80;68.00;;;;;;5053935;28;20273;-60
2023/09/26 04:05:29;;;;;;;5.25;1.88;;;19.70;68.00;;;;;;5053670;28;20250;-59
2023/09/26 04:07:57;;;;;;;7.15;2.40;;;19.70;67.90;;;;;;5053897;28;20195;-60
2023/09/26 04:10:24;;;;;;;6.40;2.30;;;19.70;68.00;;;;;;5053614;28;20604;-61
2023/09/26 04:12:52;;;;;;;4.68;2.13;;;19.70;68.00;;;;;;5053125;28;20231;-54
2023/09/26 04:15:20;;;;;;;4.47;1.90;;;19.70;68.00;;;;;;5053546;28;20279;-59
2023/09/26 04:17:49;;;;;;;5.88;2.20;;;19.70;68.00;;;;;;5053602;28;20191;-63
2023/09/26 04:20:19;;;;;;;5.20;2.00;;;19.70;68.00;;;;;;5053441;28;20198;-58
2023/09/26 04:22:47;;;;;;;5.30;2.10;;;19.70;68.10;;;;;;5053412;28;20275;-60
2023/09/26 04:25:15;;;;;;;6.13;2.40;;;19.70;68.00;;;;;;5053267;28;20203;-60
2023/09/26 04:27:42;;;;;;;8.75;3.03;;;19.70;68.10;;;;;;5052962;28;20191;-59
2023/09/26 04:30:12;;;;;;;2.70;1.90;;;19.70;68.10;;;;;;5053214;28;20601;-59
2023/09/26 04:32:39;;;;;;;5.07;2.30;;;19.70;68.10;;;;;;5053076;28;20215;-62
2023/09/26 04:35:09;;;;;;;3.95;2.00;;;19.70;68.10;;;;;;5053400;28;20281;-58
2023/09/26 04:37:36;;;;;;;4.38;2.28;;;19.70;68.20;;;;;;5053320;28;20184;-60
2023/09/26 04:40:09;;;;;;;2.33;1.83;;;19.70;68.10;;;;;;5053215;28;20219;-60
2023/09/26 04:42:36;;;;;;;4.28;2.17;;;19.70;68.20;;;;;;5052697;28;20199;-60
2023/09/26 04:45:05;;;;;;;3.53;1.83;;;19.70;68.20;;;;;;5053297;28;20215;-61
2023/09/26 04:47:32;;;;;;;4.38;1.98;;;19.80;68.30;;;;;;5052775;28;20235;-61
2023/09/26 04:49:59;;;;;;;6.13;1.90;;;19.70;68.20;;;;;;5052849;28;20269;-59
2023/09/26 04:52:28;;;;;;;5.65;1.92;;;19.70;68.20;;;;;;5051926;28;20242;-56
2023/09/26 04:54:56;;;;;;;3.72;1.80;;;19.70;68.20;;;;;;5053062;28;20281;-55
2023/09/26 04:57:23;;;;;;;3.78;2.13;;;19.70;68.20;;;;;;5052495;28;20700;-62
2023/09/26 04:59:51;;;;;;;4.78;1.73;;;19.70;68.30;;;;;;5053147;28;20216;-63
2023/09/26 05:02:18;;;;;;;3.85;2.30;;;19.70;68.30;;;;;;5052565;28;20283;-62
2023/09/26 05:04:48;;;;;;;4.82;2.40;;;19.70;68.30;;;;;;5052636;28;20220;-60
2023/09/26 05:07:16;;;;;;;5.13;2.35;;;19.70;68.30;;;;;;5052615;28;20246;-59
2023/09/26 05:09:45;;;;;;;8.15;2.30;;;19.70;68.30;;;;;;5052694;28;20223;-62
2023/09/26 05:12:12;;;;;;;4.93;2.50;;;19.70;68.30;;;;;;5052334;28;20310;-62
2023/09/26 05:15:23;;;;;;;4.82;2.40;;;19.70;68.40;;;;;;5052830;28;20222;-60
2023/09/26 05:17:51;;;;;;;5.05;2.10;;;19.70;68.50;;;;;;5052589;28;20245;-59
2023/09/26 05:20:19;;;;;;;6.25;2.47;;;19.70;68.40;;;;;;5052379;28;20241;-56
2023/09/26 05:22:49;;;;;;;5.80;2.03;;;19.70;68.40;;;;;;5051454;28;20208;-58
2023/09/26 05:25:18;;;;;;;4.82;2.13;;;19.70;68.50;;;;;;5052746;28;20231;-61
2023/09/26 05:27:45;;;;;;;4.30;2.13;;;19.70;68.50;;;;;;5052233;28;20187;-57
2023/09/26 05:30:14;;;;;;;6.85;2.60;;;19.70;68.50;;;;;;5052676;28;20247;-60
2023/09/26 05:32:42;;;;;;;4.80;2.22;;;19.70;68.50;;;;;;5052218;28;20302;-61
2023/09/26 05:35:20;;;;;;;4.38;2.00;;;19.70;68.50;;;;;;5052356;28;20317;-63
2023/09/26 05:37:48;;;;;;;5.15;2.50;;;19.70;68.50;;;;;;4984967;28;20203;-62
2023/09/26 05:40:16;;;;;;;5.45;2.35;;;19.70;68.50;;;;;;5052198;28;20226;-61
2023/09/26 05:42:44;;;;;;;7.55;2.65;;;19.70;68.50;;;;;;5052046;28;20192;-59
2023/09/26 05:45:12;;;;;;;5.88;2.95;;;19.70;68.50;;;;;;5051631;28;20657;-56
2023/09/26 05:47:39;;;;;;;4.43;2.10;;;19.70;68.60;;;;;;5051912;28;20555;-62
2023/09/26 05:50:07;;;;;;;3.53;2.10;;;19.70;68.50;;;;;;5051850;28;20714;-62
2023/09/26 05:52:35;;;;;;;4.85;2.38;;;19.70;68.60;;;;;;5052012;28;20676;-60
2023/09/26 05:55:03;;;;;;;5.55;2.30;;;19.70;68.60;;;;;;5052445;28;20219;-60
2023/09/26 05:57:32;;;;;;;3.38;1.90;;;19.70;68.60;;;;;;5051881;28;20273;-61
2023/09/26 06:00:00;;;;;;;4.35;2.13;;;19.70;68.60;;;;;;5052208;28;20216;-61
2023/09/26 06:02:27;;;;;;;4.97;2.05;;;19.70;68.70;;;;;;5052542;28;20192;-57
2023/09/26 06:04:55;;;;;;;4.57;2.45;;;19.70;68.60;;;;;;5056166;28;20255;-58
2023/09/26 06:07:23;;;;;;;4.30;2.30;;;19.70;68.60;;;;;;5056190;28;20191;-61
2023/09/26 06:09:50;;;;;;;6.53;2.33;;;19.70;68.60;;;;;;5056158;28;20258;-62
2023/09/26 06:12:18;;;;;;;3.97;1.90;;;19.70;68.70;;;;;;5055787;28;20306;-56
2023/09/26 06:14:48;;;;;;;2.63;1.77;;;19.70;68.70;;;;;;5056129;28;20223;-53
2023/09/26 06:17:15;;;;;;;4.32;2.53;;;19.70;68.60;;;;;;5055974;28;20192;-53
2023/09/26 06:19:46;;;;;;;4.68;2.20;;;19.80;68.70;;;;;;5055878;28;20215;-54
2023/09/26 06:22:14;;;;;;;3.42;2.08;;;19.80;68.60;;;;;;5062733;28;20193;-55
2023/09/26 06:24:42;;;;;;;8.75;2.20;;;19.70;68.60;;;;;;5075529;28;20229;-55
2023/09/26 06:27:09;;;;;;;2.95;2.10;;;19.80;68.60;;;;;;5075323;28;20187;-56
2023/09/26 06:29:41;;;;;;;5.45;2.45;;;19.80;68.60;;;;;;5072181;28;20222;-58
2023/09/26 06:34:59;;;;;;;4.35;2.50;;;19.90;69.50;;;;;;5075201;28;20692;-54
2023/09/26 06:37:27;;;;;;;5.30;2.33;;;19.90;68.70;;;;;;5070331;28;20198;-56
2023/09/26 06:39:58;;;;;;;3.65;2.17;;;19.90;68.70;;;;;;5072874;28;20265;-57
2023/09/26 06:42:26;;;;;;;3.45;1.80;;;19.90;68.60;;;;;;5055463;28;20246;-53
2023/09/26 06:44:54;;;;;;;3.63;2.15;;;20.00;68.60;;;;;;5065009;28;20210;-55
2023/09/26 06:47:24;;;;;;;4.72;2.15;;;19.90;68.50;;;;;;5061163;28;20230;-58
2023/09/26 06:49:53;;;;;;;4.25;2.33;;;20.00;68.60;;;;;;5069371;28;20219;-53
2023/09/26 06:52:24;;;;;;;4.78;2.38;;;20.00;68.60;;;;;;5068681;28;20297;-53
2023/09/26 06:58:34;;;;;;;3.75;2.30;;;20.00;68.60;;;;;;4993070;28;20209;-56
2023/09/26 07:03:56;;;;;;;4.68;2.22;;;20.00;68.60;;;;;;5000858;28;20223;-56
2023/09/26 07:06:26;;;;;;;4.90;2.45;;;20.00;68.60;;;;;;5057482;28;20203;-50
2023/09/26 07:11:43;;;;;;;4.57;2.42;;;20.10;68.70;;;;;;5061830;28;20207;-56
2023/09/26 07:17:10;;;;;;;8.05;2.40;;;20.20;69.00;;;;;;5067581;28;20234;-56
2023/09/26 07:19:39;;;;;;;12.25;2.33;;;20.20;68.90;;;;;;5052293;28;20239;-58
2023/09/26 07:24:50;;;;;;;4.07;2.40;;;20.30;69.00;;;;;;5049784;28;20734;-55
2023/09/26 07:30:45;;;;;;;7.85;2.17;;;20.40;69.20;;;;;;5016285;28;20263;-55
2023/09/26 07:33:13;;;;;;;5.78;2.17;;;20.40;69.00;;;;;;5055261;28;20787;-54
2023/09/26 07:35:52;;;;;;;5.88;2.55;;;20.40;69.20;;;;;;5045388;28;20227;-54
2023/09/26 07:38:21;;;;;;;5.65;1.90;;;20.50;69.20;;;;;;5054615;28;20198;-56
2023/09/26 07:40:49;;;;;;;7.93;2.50;;;20.50;69.00;;;;;;5059389;28;20225;-54
2023/09/26 07:43:29;;;;;;;6.35;2.00;;;20.50;68.90;;;;;;5070660;28;20202;-58
2023/09/26 07:45:57;;;;;;;7.13;2.50;;;20.50;68.80;;;;;;5058694;28;20241;-58
2023/09/26 07:48:25;;;;;;;4.28;2.30;;;20.50;68.90;;;;;;5057339;28;20209;-54
2023/09/26 07:50:54;;;;;;;6.03;1.80;;;20.50;68.90;;;;;;5051108;28;20860;-51
2023/09/26 07:53:45;;;;;;;4.85;2.45;;;20.50;69.00;;;;;;5063068;28;20703;-52
2023/09/26 07:56:18;;;;;;;4.43;2.20;;;20.50;69.00;;;;;;5077253;28;20305;-55
2023/09/26 07:58:46;;;;;;;5.05;2.38;;;20.50;69.70;;;;;;5074517;28;20260;-56
2023/09/26 08:01:14;;;;;;;4.90;2.17;;;20.50;69.00;;;;;;5070054;28;20580;-53
2023/09/26 08:03:55;;;;;;;4.28;2.65;;;20.60;69.00;;;;;;5052895;28;20207;-57
2023/09/26 08:09:31;;;;;;;5.97;2.30;;;20.60;69.00;;;;;;5020874;28;20210;-56
2023/09/26 08:12:09;;;;;;;3.78;2.08;;;20.60;69.00;;;;;;5071149;28;20213;-52
2023/09/26 08:14:41;;;;;;;4.00;2.28;;;20.60;69.00;;;;;;5015423;28;20195;-55
2023/09/26 08:17:09;;;;;;;4.57;2.40;;;20.60;69.00;;;;;;5058782;28;20287;-52
2023/09/26 08:19:47;;;;;;;5.20;2.10;;;20.60;69.00;;;;;;5057170;28;20207;-56
2023/09/26 08:22:26;;;;;;;5.53;2.50;;;20.70;69.10;;;;;;4994597;28;20210;-57
2023/09/26 08:28:08;;;;;;;6.28;2.40;;;20.60;68.90;;;;;;5066464;28;20272;-54
2023/09/26 08:30:36;;;;;;;4.95;2.55;;;20.60;68.90;;;;;;5060697;28;20710;-56
2023/09/26 08:33:06;;;;;;;8.55;2.75;;;20.70;69.00;;;;;;5064648;28;20317;-53
2023/09/26 08:35:34;;;;;;;4.80;2.60;;;20.70;69.00;;;;;;5066154;28;20222;-49
2023/09/26 08:38:04;;;;;;;4.93;2.45;;;20.80;69.10;;;;;;5055183;28;20199;-57
2023/09/26 08:40:42;;;;;;;6.38;2.30;;;20.70;69.00;;;;;;5054024;28;20214;-52
2023/09/26 08:43:19;;;;;;;4.25;2.25;;;20.80;69.10;;;;;;5014876;28;20215;-54
2023/09/26 08:45:46;;;;;;;6.70;2.10;;;20.80;69.10;;;;;;5064415;28;20315;-53
2023/09/26 08:48:15;;;;;;;4.18;2.22;;;20.80;69.00;;;;;;5053956;28;20195;-54
2023/09/26 08:50:52;;;;;;;;;;;;;;;;;;;;;
2023/09/26 08:53:22;;;;;;;6.50;2.20;;;20.80;68.90;;;;;;5053757;28;20227;-53
2023/09/26 08:55:50;;;;;;;4.80;2.15;;;20.80;69.00;;;;;;5046465;28;20223;-57
2023/09/26 08:58:49;;;;;;;5.30;2.67;;;20.80;68.90;;;;;;5044756;28;20295;-54
2023/09/26 09:01:43;;;;;;;3.78;2.10;;;20.80;68.90;;;;;;5055764;28;20225;-56
2023/09/26 09:04:13;;;;;;;5.05;2.40;;;20.90;68.90;;;;;;5001971;28;20273;-54
2023/09/26 09:06:41;;;;;;;4.22;2.20;;;20.80;68.80;;;;;;5048746;28;20222;-53
2023/09/26 09:09:13;;;;;;;4.57;2.60;;;20.80;68.80;;;;;;5047525;28;20242;-55
2023/09/26 09:11:41;;;;;;;4.93;2.42;;;20.90;68.90;;;;;;5047567;28;20251;-55
2023/09/26 09:14:33;;;;;;;4.50;2.17;;;20.80;68.80;;;;;;5049978;28;20308;-54
2023/09/26 09:17:15;;;;;;;8.73;2.67;;;20.90;68.90;;;;;;5065232;28;20615;-56
2023/09/26 09:19:46;;;;;;;4.90;2.58;;;20.90;68.80;;;;;;5066305;28;20197;-55
2023/09/26 09:22:20;;;;;;;4.22;2.33;;;20.90;68.80;;;;;;5068559;28;20234;-52
2023/09/26 09:24:56;;;;;;;5.65;2.05;;;20.90;68.90;;;;;;5065509;28;20198;-54
2023/09/26 09:27:34;;;;;;;5.28;2.42;;;20.90;68.80;;;;;;5069792;28;20322;-56
2023/09/26 09:30:07;;;;;;;4.03;2.42;;;20.90;68.80;;;;;;5069527;28;20259;-56
2023/09/26 09:32:35;;;;;;;7.80;2.50;;;20.90;68.80;;;;;;5066845;28;20269;-52
2023/09/26 09:35:03;;;;;;;3.53;2.10;;;20.90;68.80;;;;;;5063839;28;20542;-53
2023/09/26 09:37:31;;;;;;;6.10;2.10;;;20.90;68.70;;;;;;5050011;28;20223;-56
2023/09/26 09:40:00;;;;;;;4.65;2.25;;;21.00;68.80;;;;;;5068060;28;20187;-56
2023/09/26 09:42:29;;;;;;;7.30;1.80;;;21.00;68.80;;;;;;5066969;28;20229;-57
2023/09/26 09:47:48;;;;;;;4.63;1.80;;;20.90;68.60;;;;;;5061448;28;20223;-51
2023/09/26 09:50:17;;;;;;;5.07;2.08;;;21.00;68.60;;;;;;5015750;28;20204;-54
2023/09/26 09:53:03;;;;;;;5.25;2.00;;;21.10;68.80;;;;;;5047547;28;20223;-58
2023/09/26 09:55:38;;;;;;;3.53;2.17;;;21.00;68.60;;;;;;5058533;28;20203;-52
2023/09/26 09:58:11;;;;;;;6.63;2.30;;;21.00;68.60;;;;;;5065190;28;20685;-53
2023/09/26 10:00:40;;;;;;;5.07;2.10;;;21.00;68.50;;;;;;5056458;28;20284;-51
2023/09/26 10:03:12;;;;;;;6.03;2.00;;;21.10;68.50;;;;;;5050719;28;20220;-53
2023/09/26 10:05:40;;;;;;;6.15;2.10;;;21.10;68.50;;;;;;5051962;28;20208;-49
2023/09/26 10:08:09;;;;;;;2.85;1.85;;;21.10;68.50;;;;;;5052083;28;20782;-49
2023/09/26 10:10:40;;;;;;;5.05;1.88;;;21.10;68.40;;;;;;5080497;28;20186;-50
2023/09/26 10:13:09;;;;;;;3.00;1.90;;;21.10;68.40;;;;;;5090738;28;20239;-50
2023/09/26 10:16:04;;;;;;;9.18;2.05;;;21.10;68.40;;;;;;5078954;28;20199;-52
2023/09/26 10:18:33;;;;;;;6.20;1.75;;;21.10;68.50;;;;;;5071069;28;20254;-52
2023/09/26 10:21:03;;;;;;;5.10;2.10;;;21.10;68.50;;;;;;5063652;28;20245;-52
2023/09/26 10:23:30;;;;;;;3.90;1.85;;;21.10;68.40;;;;;;5050432;28;20231;-51
2023/09/26 10:26:03;;;;;;;3.17;2.05;;;21.10;68.40;;;;;;5050521;28;20302;-49
2023/09/26 10:28:32;;;;;;;3.67;1.63;;;21.10;68.40;;;;;;5051061;28;20215;-52
2023/09/26 10:31:00;;;;;;;3.50;1.73;;;21.10;68.40;;;;;;5050784;28;20192;-55
2023/09/26 10:33:30;;;;;;;3.85;1.75;;;21.20;68.40;;;;;;5055969;28;20238;-50
2023/09/26 10:36:04;;;;;;;5.00;2.00;;;21.10;68.30;;;;;;5051871;28;20204;-48
2023/09/26 10:38:32;;;;;;;4.15;2.00;;;21.10;68.30;;;;;;5048836;28;20223;-54
2023/09/26 10:41:01;;;;;;;4.68;2.10;;;21.10;68.20;;;;;;5049403;28;20196;-53
2023/09/26 10:43:28;;;;;;;5.20;1.90;;;21.20;68.30;;;;;;5049879;28;20302;-50
2023/09/26 10:45:57;;;;;;;3.65;1.90;;;21.10;68.20;;;;;;5058044;28;20218;-51
2023/09/26 10:48:24;;;;;;;4.68;2.00;;;21.20;68.30;;;;;;5089374;28;20217;-51
2023/09/26 10:51:00;;;;;;;4.47;1.70;;;21.20;68.20;;;;;;5092041;28;20251;-52
2023/09/26 10:53:29;;;;;;;6.80;2.30;;;21.20;68.20;;;;;;5082579;28;20325;-52
2023/09/26 10:56:00;;;;;;;4.35;1.90;;;21.20;68.20;;;;;;5073583;28;20277;-49
2023/09/26 10:58:33;;;;;;;4.60;2.38;;;21.20;68.20;;;;;;5074315;28;20218;-54
2023/09/26 11:01:00;;;;;;;5.25;2.10;;;21.20;68.20;;;;;;5073323;28;20191;-52
2023/09/26 11:03:30;;;;;;;5.95;2.03;;;21.10;68.10;;;;;;5073897;28;20233;-54
2023/09/26 11:05:58;;;;;;;3.95;2.00;;;21.20;68.20;;;;;;5073528;28;20278;-49
2023/09/26 11:08:26;;;;;;;6.85;2.00;;;21.20;68.20;;;;;;5073493;28;20715;-54
2023/09/26 11:10:55;;;;;;;2.75;1.60;;;21.20;68.20;;;;;;5074307;28;20191;-54
2023/09/26 11:13:24;;;;;;;3.25;1.90;;;21.10;68.10;;;;;;5073288;28;20317;-52
2023/09/26 11:15:54;;;;;;;5.97;1.73;;;21.10;68.10;;;;;;5074179;28;20192;-51
2023/09/26 11:18:23;;;;;;;7.45;2.30;;;21.10;68.10;;;;;;5074099;28;20214;-55
2023/09/26 11:20:51;;;;;;;5.05;1.90;;;21.20;68.20;;;;;;5074086;28;20190;-53
2023/09/26 11:23:35;;;;;;;2.72;2.00;;;21.20;68.20;;;;;;5073644;28;20221;-53
2023/09/26 11:26:04;;;;;;;5.20;2.13;;;21.10;68.10;;;;;;5074113;28;20257;-55
2023/09/26 11:28:31;;;;;;;3.53;1.85;;;21.20;68.20;;;;;;5073859;28;20221;-47
2023/09/26 11:31:00;;;;;;;5.03;1.90;;;21.20;68.20;;;;;;5073596;28;20190;-46
2023/09/26 11:33:28;;;;;;;3.55;1.90;;;21.10;68.10;;;;;;5056857;28;20227;-50
2023/09/26 11:35:56;;;;;;;4.68;2.03;;;21.10;68.10;;;;;;5051398;28;20325;-52
2023/09/26 11:38:24;;;;;;;3.67;1.80;;;21.10;68.10;;;;;;5062907;28;20228;-53
2023/09/26 11:40:54;;;;;;;3.38;1.95;;;21.10;68.10;;;;;;5070330;28;20230;-53
2023/09/26 11:43:21;;;;;;;3.85;1.80;;;21.10;68.10;;;;;;5072039;28;20582;-52
2023/09/26 11:45:49;;;;;;;5.20;1.83;;;21.10;68.20;;;;;;5073131;28;20226;-53
2023/09/26 11:48:20;;;;;;;3.88;1.92;;;21.10;68.20;;;;;;5073208;28;20222;-50
2023/09/26 11:50:47;;;;;;;4.78;2.17;;;21.10;68.20;;;;;;5073281;28;20203;-50
2023/09/26 11:53:16;;;;;;;3.90;2.08;;;21.10;68.20;;;;;;5068010;28;20214;-54
2023/09/26 11:55:50;;;;;;;3.35;1.80;;;21.10;68.30;;;;;;5078762;28;20199;-50
2023/09/26 11:58:18;;;;;;;4.95;1.80;;;21.10;68.30;;;;;;5070447;28;20606;-48
2023/09/26 12:00:45;;;;;;;12.30;2.92;;;21.10;68.40;;;;;;5052871;28;20195;-54
2023/09/26 12:03:12;;;;;;;6.15;1.95;;;21.10;68.40;;;;;;5059982;28;20226;-52
2023/09/26 12:05:41;;;;;;;12.85;2.20;;;21.20;68.40;;;;;;5063935;28;20195;-56
2023/09/26 12:08:11;;;;;;;3.35;1.80;;;21.10;68.40;;;;;;5061022;28;20222;-53
2023/09/26 12:10:53;;;;;;;7.43;2.00;;;21.10;68.40;;;;;;5071872;28;20236;-52
2023/09/26 12:13:21;;;;;;;5.28;2.25;;;21.20;68.50;;;;;;5006806;28;20250;-52
2023/09/26 12:15:48;;;;;;;5.47;2.00;;;21.20;68.60;;;;;;5059308;28;20194;-54
2023/09/26 12:18:16;;;;;;;3.80;1.70;;;21.20;68.50;;;;;;5072450;28;20223;-52
2023/09/26 12:20:45;;;;;;;4.82;2.13;;;21.30;68.60;;;;;;5050750;28;20209;-55
2023/09/26 12:23:13;;;;;;;5.22;2.20;;;21.30;68.50;;;;;;5053043;28;20638;-56
2023/09/26 12:25:59;;;;;;;6.97;2.55;;;21.30;68.50;;;;;;5065256;28;20207;-52
2023/09/26 12:28:26;;;;;;;5.50;2.40;;;21.30;68.50;;;;;;5058662;28;20230;-51
2023/09/26 12:30:54;;;;;;;4.00;1.95;;;21.40;68.50;;;;;;5065617;28;20187;-54
2023/09/26 12:33:24;;;;;;;4.78;2.00;;;21.40;68.50;;;;;;5054721;28;20227;-53
2023/09/26 12:38:53;;;;;;;3.80;2.00;;;21.50;68.80;;;;;;4988254;28;20226;-53
2023/09/26 12:41:20;;;;;;;2.90;1.40;;;21.50;68.80;;;;;;4986160;28;20280;-53
2023/09/26 12:46:30;;;;;;;5.20;2.20;;;21.60;68.70;;;;;;4979522;28;21098;-51
2023/09/26 12:48:57;;;;;;;4.28;1.80;;;21.70;68.80;;;;;;5055147;28;20741;-52
2023/09/26 12:51:28;;;;;;;6.38;2.22;;;21.70;68.60;;;;;;5062949;28;20194;-53
2023/09/26 12:53:56;;;;;;;5.60;2.28;;;21.80;68.60;;;;;;5066684;28;20218;-53
2023/09/26 12:56:23;;;;;;;5.97;1.83;;;21.80;68.50;;;;;;5067557;28;20230;-54
2023/09/26 12:58:50;;;;;;;4.80;2.05;;;21.80;68.50;;;;;;5066236;28;20222;-56
2023/09/26 13:01:17;;;;;;;4.38;1.80;;;21.80;68.40;;;;;;5066388;28;20198;-52
2023/09/26 13:03:44;;;;;;;4.03;1.98;;;21.90;68.30;;;;;;5066753;28;20738;-56
2023/09/26 13:06:12;;;;;;;5.30;2.10;;;21.90;68.20;;;;;;5066789;28;20306;-53
2023/09/26 13:08:41;;;;;;;3.53;2.05;;;21.90;68.20;;;;;;5066653;28;20229;-58
2023/09/26 13:11:08;;;;;;;5.13;2.25;;;21.90;68.20;;;;;;5065509;28;20191;-58
2023/09/26 13:13:35;;;;;;;6.18;2.50;;;21.90;68.10;;;;;;5064295;28;20218;-50
2023/09/26 13:16:02;;;;;;;3.83;2.00;;;22.00;68.10;;;;;;5053450;28;20278;-53
2023/09/26 13:18:30;;;;;;;5.90;2.13;;;22.00;68.20;;;;;;5057829;28;20325;-53
2023/09/26 13:21:00;;;;;;;4.07;1.83;;;22.00;68.90;;;;;;5066184;28;20276;-54
2023/09/26 13:23:27;;;;;;;5.45;1.92;;;22.00;68.10;;;;;;5066509;28;20825;-52
2023/09/26 13:25:56;;;;;;;3.97;1.98;;;22.00;68.10;;;;;;5064443;28;20579;-55
2023/09/26 13:28:23;;;;;;;4.43;2.40;;;22.00;68.10;;;;;;5060090;28;20211;-57
2023/09/26 13:30:50;;;;;;;7.70;2.00;;;22.10;68.20;;;;;;5059447;28;20664;-53
2023/09/26 13:33:18;;;;;;;3.47;1.60;;;22.10;68.20;;;;;;5072949;28;20213;-49
2023/09/26 13:35:45;;;;;;;4.72;1.80;;;22.10;68.10;;;;;;5068997;28;20226;-50
2023/09/26 13:38:27;;;;;;;4.60;2.15;;;22.10;68.10;;;;;;5057394;28;20210;-47
2023/09/26 13:43:41;;;;;;;6.93;1.85;;;22.10;68.20;;;;;;5034578;28;20237;-50
2023/09/26 13:46:12;;;;;;;5.88;2.00;;;22.20;68.10;;;;;;5061169;28;20591;-52
2023/09/26 13:51:31;;;;;;;3.85;1.75;;;22.10;67.70;;;;;;5061994;28;20263;-53